Time;durP1;ratioP1;P1;durP2;ratioP2;P2;SDS_P1;SDS_P2;PMS_P1;PMS_P2;Temp;Humidity;BMP_temperature;BMP_pressure;BME280_temperature;BME280_humidity;BME280_pressure;Samples;Min_cycle;Max_cycle;Signal;HPM_P1;HPM_P2
2023/01/05 00:02:13;;;;;;;2.85;1.60;;;;;;;;;;6245753;22;20175;-90
2023/01/05 00:05:18;;;;;;;1.48;0.93;;;;;;;;;;6243672;22;20167;-89
2023/01/05 00:08:26;;;;;;;1.83;1.10;;;;;;;;;;6244432;23;20617;-90
2023/01/05 00:25:15;;;;;;;3.13;0.80;;;;;;;;;;6244752;22;20198;-90
2023/01/05 00:28:20;;;;;;;2.03;1.13;;;;;;;;;;6243965;22;20166;-89
2023/01/05 00:31:25;;;;;;;1.08;0.85;;;;;;;;;;6242980;22;20166;-89
2023/01/05 00:34:31;;;;;;;1.10;0.60;;;;;;;;;;6260314;22;20490;-89
2023/01/05 00:37:37;;;;;;;2.13;0.98;;;;;;;;;;6242592;22;20150;-90
2023/01/05 00:40:45;;;;;;;2.97;0.98;;;;;;;;;;6246008;23;20157;-90
2023/01/05 00:43:51;;;;;;;0.88;0.80;;;;;;;;;;6246335;22;20178;-90
2023/01/05 00:46:57;;;;;;;2.35;0.82;;;;;;;;;;6245026;22;20169;-91
2023/01/05 00:50:02;;;;;;;0.95;0.80;;;;;;;;;;6246725;22;20173;-92
2023/01/05 00:53:07;;;;;;;1.60;0.70;;;;;;;;;;6245683;22;20230;-91
2023/01/05 00:56:14;;;;;;;5.82;0.88;;;;;;;;;;6246687;23;20198;-89
2023/01/05 00:59:20;;;;;;;0.95;0.75;;;;;;;;;;6248105;23;20229;-90
2023/01/05 01:02:26;;;;;;;1.20;0.82;;;;;;;;;;6265472;22;20166;-90
2023/01/05 01:05:31;;;;;;;1.25;0.77;;;;;;;;;;6247623;22;20186;-90
2023/01/05 01:08:37;;;;;;;2.05;0.80;;;;;;;;;;6248307;23;20170;-89
2023/01/05 01:11:44;;;;;;;0.90;0.63;;;;;;;;;;6248353;22;20212;-89
2023/01/05 01:14:53;;;;;;;1.58;0.90;;;;;;;;;;6249003;22;20214;-90
2023/01/05 01:18:00;;;;;;;3.22;0.80;;;;;;;;;;6249119;22;20162;-91
2023/01/05 01:21:07;;;;;;;1.98;0.73;;;;;;;;;;6248073;22;20209;-90
2023/01/05 01:24:15;;;;;;;1.30;1.05;;;;;;;;;;6249585;22;20277;-90
2023/01/05 01:27:23;;;;;;;1.52;0.88;;;;;;;;;;6266558;22;20166;-88
2023/01/05 01:30:28;;;;;;;1.17;0.90;;;;;;;;;;6247935;23;20159;-91
2023/01/05 01:33:34;;;;;;;1.13;0.70;;;;;;;;;;6247951;22;20174;-90
2023/01/05 01:36:39;;;;;;;3.67;0.90;;;;;;;;;;6246209;22;20325;-91
2023/01/05 01:39:45;;;;;;;1.65;0.82;;;;;;;;;;6246161;22;20149;-90
2023/01/05 01:42:53;;;;;;;2.17;1.10;;;;;;;;;;6246322;22;20161;-91
2023/01/05 01:45:59;;;;;;;1.55;0.63;;;;;;;;;;6245163;22;20162;-90
2023/01/05 01:49:07;;;;;;;3.78;0.90;;;;;;;;;;6245237;22;20162;-92
2023/01/05 01:52:12;;;;;;;1.80;0.70;;;;;;;;;;6245655;23;20496;-89
2023/01/05 01:55:19;;;;;;;0.75;0.60;;;;;;;;;;6244929;22;20267;-90
2023/01/05 01:58:27;;;;;;;0.70;0.60;;;;;;;;;;6245717;22;20174;-91
2023/01/05 02:01:32;;;;;;;1.65;1.00;;;;;;;;;;6245083;22;20171;-89
2023/01/05 02:04:38;;;;;;;1.08;0.60;;;;;;;;;;6245994;22;20214;-90
2023/01/05 02:07:45;;;;;;;2.33;0.85;;;;;;;;;;6245311;22;20173;-91
2023/01/05 02:10:58;;;;;;;0.80;0.70;;;;;;;;;;6243775;22;20237;-91
2023/01/05 02:14:08;;;;;;;0.88;0.70;;;;;;;;;;6239905;22;20166;-90
2023/01/05 02:17:19;;;;;;;0.90;0.80;;;;;;;;;;6243022;22;20194;-91
2023/01/05 02:20:38;;;;;;;1.20;0.70;;;;;;;;;;6241396;23;20221;-89
2023/01/05 02:23:59;;;;;;;2.42;0.80;;;;;;;;;;6241637;23;20150;-92
2023/01/05 02:27:25;;;;;;;1.10;0.65;;;;;;;;;;6243703;22;20166;-91
2023/01/05 02:30:49;;;;;;;0.60;0.60;;;;;;;;;;6242587;23;20205;-90
2023/01/05 02:34:10;;;;;;;0.98;0.68;;;;;;;;;;6242508;23;20617;-91
2023/01/05 02:37:17;;;;;;;1.92;0.70;;;;;;;;;;6244215;22;20251;-91
2023/01/05 02:40:25;;;;;;;1.65;0.70;;;;;;;;;;6244116;22;20242;-89
2023/01/05 02:43:32;;;;;;;1.13;0.65;;;;;;;;;;6242300;22;20167;-90
2023/01/05 02:46:37;;;;;;;1.05;0.50;;;;;;;;;;6244752;23;20170;-91
2023/01/05 02:49:44;;;;;;;2.45;0.70;;;;;;;;;;6243911;23;20170;-90
2023/01/05 02:52:53;;;;;;;0.88;0.60;;;;;;;;;;6245239;22;20182;-91
2023/01/05 02:56:03;;;;;;;3.58;1.73;;;;;;;;;;6243530;22;20191;-92
2023/01/05 02:59:16;;;;;;;0.80;0.68;;;;;;;;;;6244399;22;20166;-91
2023/01/05 03:02:23;;;;;;;1.13;0.60;;;;;;;;;;6244434;23;20594;-90
2023/01/05 03:05:36;;;;;;;0.50;0.50;;;;;;;;;;6243033;22;20170;-90
2023/01/05 03:08:52;;;;;;;2.05;0.60;;;;;;;;;;6244567;23;20167;-89
2023/01/05 03:15:25;;;;;;;0.75;0.50;;;;;;;;;;6243038;22;20167;-90
2023/01/05 03:18:32;;;;;;;1.02;0.50;;;;;;;;;;6242593;22;20165;-90
2023/01/05 03:35:31;;;;;;;0.45;0.45;;;;;;;;;;6243909;22;20278;-91
2023/01/05 03:38:41;;;;;;;1.10;0.60;;;;;;;;;;6244322;23;20162;-91
2023/01/05 03:41:47;;;;;;;0.52;0.50;;;;;;;;;;6242829;23;20886;-90
2023/01/05 03:44:53;;;;;;;1.75;0.60;;;;;;;;;;6241814;23;20166;-91
2023/01/05 03:47:58;;;;;;;1.13;0.70;;;;;;;;;;6241578;23;20215;-92
2023/01/05 03:51:06;;;;;;;0.82;0.60;;;;;;;;;;6243804;22;20163;-90
2023/01/05 03:54:17;;;;;;;1.13;0.63;;;;;;;;;;6241738;22;20190;-91
2023/01/05 03:57:25;;;;;;;0.40;0.40;;;;;;;;;;6242911;23;20210;-90
2023/01/05 04:00:31;;;;;;;3.83;0.65;;;;;;;;;;6243198;23;20154;-89
2023/01/05 04:03:42;;;;;;;0.82;0.50;;;;;;;;;;6243297;23;20162;-87
2023/01/05 04:06:47;;;;;;;0.93;0.68;;;;;;;;;;6241477;23;20174;-89
2023/01/05 04:09:55;;;;;;;1.27;0.63;;;;;;;;;;6246334;22;20167;-89
2023/01/05 04:13:00;;;;;;;1.27;0.60;;;;;;;;;;6243246;23;20215;-91
2023/01/05 04:16:07;;;;;;;1.33;0.73;;;;;;;;;;6242037;23;20661;-89
2023/01/05 04:19:13;;;;;;;1.05;0.68;;;;;;;;;;6241164;23;20174;-88
2023/01/05 04:22:19;;;;;;;1.73;0.52;;;;;;;;;;6242052;22;20166;-89
2023/01/05 04:25:26;;;;;;;1.20;0.60;;;;;;;;;;6242528;23;20175;-89
2023/01/05 04:28:31;;;;;;;1.33;0.60;;;;;;;;;;6242466;23;20163;-90
2023/01/05 04:31:37;;;;;;;1.77;0.60;;;;;;;;;;6243144;22;20149;-89
2023/01/05 04:34:44;;;;;;;0.80;0.60;;;;;;;;;;6260173;22;20166;-87
2023/01/05 04:37:50;;;;;;;0.77;0.50;;;;;;;;;;6241845;23;20197;-89
2023/01/05 04:40:57;;;;;;;1.05;0.50;;;;;;;;;;6243475;22;20245;-90
2023/01/05 04:44:04;;;;;;;0.60;0.60;;;;;;;;;;6242071;23;20162;-90
2023/01/05 04:47:10;;;;;;;0.98;0.50;;;;;;;;;;6242911;22;20150;-89
2023/01/05 04:50:18;;;;;;;0.98;0.50;;;;;;;;;;6242540;22;20169;-88
2023/01/05 04:53:24;;;;;;;1.02;0.63;;;;;;;;;;6243540;22;20190;-91
2023/01/05 04:56:33;;;;;;;0.85;0.50;;;;;;;;;;6243907;22;20225;-91
2023/01/05 04:59:39;;;;;;;0.85;0.60;;;;;;;;;;6242383;23;20610;-90
2023/01/05 05:02:45;;;;;;;0.90;0.50;;;;;;;;;;6243896;22;20206;-89
2023/01/05 05:05:53;;;;;;;1.40;0.55;;;;;;;;;;6260957;22;20221;-88
2023/01/05 05:08:58;;;;;;;2.03;0.45;;;;;;;;;;6244208;22;20166;-89
2023/01/05 05:12:06;;;;;;;1.05;0.70;;;;;;;;;;6260985;22;20166;-91
2023/01/05 05:15:12;;;;;;;1.60;0.70;;;;;;;;;;6242466;23;20233;-90
2023/01/05 05:18:23;;;;;;;2.58;0.63;;;;;;;;;;6244056;22;20154;-90
2023/01/05 05:21:29;;;;;;;3.03;0.73;;;;;;;;;;6243892;23;20266;-89
2023/01/05 05:24:34;;;;;;;1.48;0.70;;;;;;;;;;6242918;22;20613;-92
2023/01/05 05:27:40;;;;;;;0.77;0.50;;;;;;;;;;6242221;23;20217;-90
2023/01/05 05:30:46;;;;;;;0.70;0.60;;;;;;;;;;6243380;23;20206;-88
2023/01/05 05:33:51;;;;;;;0.70;0.50;;;;;;;;;;6243902;23;20580;-90
2023/01/05 05:36:56;;;;;;;1.65;0.70;;;;;;;;;;6244692;22;20265;-89
2023/01/05 05:40:01;;;;;;;0.95;0.75;;;;;;;;;;6245334;23;20492;-89
2023/01/05 05:43:08;;;;;;;0.60;0.50;;;;;;;;;;6244845;23;20162;-89
2023/01/05 05:46:12;;;;;;;2.58;0.60;;;;;;;;;;6262362;23;20621;-90
2023/01/05 05:49:17;;;;;;;1.17;0.70;;;;;;;;;;6243623;22;20213;-90
2023/01/05 05:52:23;;;;;;;0.77;0.68;;;;;;;;;;6243358;22;20170;-89
2023/01/05 05:55:28;;;;;;;1.70;0.60;;;;;;;;;;6243338;22;20174;-90
2023/01/05 05:58:34;;;;;;;1.48;0.90;;;;;;;;;;6242480;23;20171;-90
2023/01/05 06:01:39;;;;;;;0.80;0.60;;;;;;;;;;6242099;23;20162;-90
2023/01/05 06:04:44;;;;;;;0.60;0.60;;;;;;;;;;6240569;23;20170;-89
2023/01/05 06:07:49;;;;;;;1.35;0.60;;;;;;;;;;6243339;22;20146;-90
2023/01/05 06:10:55;;;;;;;1.73;0.60;;;;;;;;;;6244387;22;20214;-89
2023/01/05 06:14:03;;;;;;;2.08;0.90;;;;;;;;;;6243465;23;20161;-88
2023/01/05 06:17:08;;;;;;;1.90;0.95;;;;;;;;;;6243639;23;20218;-88
2023/01/05 06:20:13;;;;;;;1.10;0.63;;;;;;;;;;6242862;23;20159;-89
2023/01/05 06:23:19;;;;;;;1.58;0.68;;;;;;;;;;6241712;23;20154;-88
2023/01/05 06:26:24;;;;;;;1.45;0.93;;;;;;;;;;6242072;22;20170;-89
2023/01/05 06:29:30;;;;;;;1.83;0.65;;;;;;;;;;6242581;23;20219;-91
2023/01/05 06:32:35;;;;;;;0.68;0.52;;;;;;;;;;6243119;23;20167;-90
2023/01/05 06:35:40;;;;;;;1.92;0.90;;;;;;;;;;6243826;22;20167;-92
2023/01/05 06:38:45;;;;;;;0.80;0.50;;;;;;;;;;6241785;22;20170;-91
2023/01/05 06:41:51;;;;;;;1.15;0.60;;;;;;;;;;6242907;22;20162;-88
2023/01/05 06:44:58;;;;;;;1.13;0.60;;;;;;;;;;6241441;22;20162;-92
2023/01/05 06:48:03;;;;;;;1.50;0.63;;;;;;;;;;6242371;22;20214;-92
2023/01/05 06:51:08;;;;;;;0.93;0.60;;;;;;;;;;6244091;23;20167;-90
2023/01/05 06:54:14;;;;;;;1.33;0.70;;;;;;;;;;6241905;23;20197;-89
2023/01/05 06:57:20;;;;;;;1.30;0.80;;;;;;;;;;6243730;22;20205;-90
2023/01/05 07:00:27;;;;;;;2.13;0.73;;;;;;;;;;6243666;22;20237;-90
2023/01/05 07:03:33;;;;;;;1.90;0.80;;;;;;;;;;6244620;22;20166;-90
2023/01/05 07:06:38;;;;;;;1.42;0.88;;;;;;;;;;6243867;22;20198;-90
2023/01/05 07:09:48;;;;;;;1.08;0.63;;;;;;;;;;6259125;23;20162;-90
2023/01/05 07:12:53;;;;;;;0.85;0.50;;;;;;;;;;6240687;22;20230;-89
2023/01/05 07:16:00;;;;;;;0.60;0.50;;;;;;;;;;6241746;22;20182;-90
2023/01/05 07:19:06;;;;;;;2.90;0.60;;;;;;;;;;6241400;23;20494;-90
2023/01/05 07:22:11;;;;;;;0.50;0.50;;;;;;;;;;6242444;23;20165;-90
2023/01/05 07:25:17;;;;;;;3.80;0.70;;;;;;;;;;6240752;23;20189;-90
2023/01/05 07:28:22;;;;;;;1.80;0.50;;;;;;;;;;6241715;23;20182;-90
2023/01/05 07:31:28;;;;;;;0.65;0.52;;;;;;;;;;6243998;23;20190;-91
2023/01/05 07:34:33;;;;;;;3.35;0.55;;;;;;;;;;6242629;23;20158;-90
2023/01/05 07:37:38;;;;;;;2.05;0.50;;;;;;;;;;6242876;22;20194;-90
2023/01/05 07:40:43;;;;;;;0.50;0.50;;;;;;;;;;6243908;23;20170;-90
2023/01/05 07:43:49;;;;;;;1.42;0.55;;;;;;;;;;6241334;23;20213;-90
2023/01/05 07:46:57;;;;;;;0.60;0.60;;;;;;;;;;6241435;22;20159;-89
2023/01/05 07:50:02;;;;;;;3.85;0.68;;;;;;;;;;6258302;23;20624;-89
2023/01/05 07:53:07;;;;;;;1.17;0.60;;;;;;;;;;6241480;23;20189;-89
2023/01/05 07:56:13;;;;;;;0.68;0.60;;;;;;;;;;6241054;22;20606;-90
2023/01/05 07:59:21;;;;;;;0.73;0.55;;;;;;;;;;6258518;23;20667;-90
2023/01/05 08:02:29;;;;;;;2.03;0.70;;;;;;;;;;6244732;22;20161;-89
2023/01/05 08:05:34;;;;;;;1.25;0.85;;;;;;;;;;6243102;22;20167;-90
2023/01/05 08:08:39;;;;;;;1.15;0.50;;;;;;;;;;6242697;23;20171;-90
2023/01/05 08:11:44;;;;;;;0.50;0.50;;;;;;;;;;6243378;23;20213;-89
2023/01/05 08:14:50;;;;;;;0.93;0.60;;;;;;;;;;6241000;22;20162;-89
2023/01/05 08:17:56;;;;;;;1.15;0.50;;;;;;;;;;6243880;22;20214;-90
2023/01/05 08:21:03;;;;;;;1.08;0.57;;;;;;;;;;6241435;22;20488;-89
2023/01/05 08:24:08;;;;;;;0.57;0.50;;;;;;;;;;6240492;23;20161;-89
2023/01/05 08:27:14;;;;;;;0.50;0.50;;;;;;;;;;6240746;22;20171;-90
2023/01/05 08:30:19;;;;;;;1.15;0.60;;;;;;;;;;6238451;22;20167;-90
2023/01/05 08:33:26;;;;;;;2.45;0.60;;;;;;;;;;6240698;22;20154;-89
2023/01/05 08:36:31;;;;;;;3.33;0.60;;;;;;;;;;6241683;22;20211;-89
2023/01/05 08:39:36;;;;;;;0.88;0.60;;;;;;;;;;6240988;22;20297;-91
2023/01/05 08:42:41;;;;;;;2.28;0.70;;;;;;;;;;6240665;22;20162;-89
2023/01/05 08:45:50;;;;;;;1.80;0.60;;;;;;;;;;6239520;22;20597;-89
2023/01/05 08:48:58;;;;;;;2.70;0.82;;;;;;;;;;6240983;23;20174;-88
2023/01/05 08:52:04;;;;;;;2.35;0.88;;;;;;;;;;6241318;23;20162;-89
2023/01/05 08:55:09;;;;;;;4.07;0.95;;;;;;;;;;6238995;23;20166;-91
2023/01/05 08:58:15;;;;;;;2.22;0.82;;;;;;;;;;6241527;22;20193;-89
2023/01/05 09:01:21;;;;;;;4.20;1.35;;;;;;;;;;6239819;22;20213;-89
2023/01/05 09:04:27;;;;;;;4.90;1.30;;;;;;;;;;6239877;23;20151;-90
2023/01/05 09:07:33;;;;;;;1.08;0.80;;;;;;;;;;6242309;23;20190;-90
2023/01/05 09:10:38;;;;;;;5.95;1.38;;;;;;;;;;6245084;22;20190;-91
2023/01/05 09:13:47;;;;;;;2.33;1.00;;;;;;;;;;6245192;23;20161;-90
2023/01/05 09:16:52;;;;;;;3.42;1.42;;;;;;;;;;6244990;23;20167;-90
2023/01/05 09:20:02;;;;;;;6.10;1.42;;;;;;;;;;6242445;23;20249;-88
2023/01/05 09:23:07;;;;;;;5.80;1.77;;;;;;;;;;6242542;22;20165;-91
2023/01/05 09:26:14;;;;;;;6.40;1.58;;;;;;;;;;6242997;22;20178;-90
2023/01/05 09:29:19;;;;;;;5.35;1.20;;;;;;;;;;6245203;22;20170;-89
2023/01/05 09:32:24;;;;;;;4.82;1.33;;;;;;;;;;6244179;23;20170;-90
2023/01/05 09:35:32;;;;;;;6.65;1.40;;;;;;;;;;6244061;22;20614;-90
2023/01/05 09:38:37;;;;;;;5.63;1.42;;;;;;;;;;6244544;22;20230;-88
2023/01/05 09:41:44;;;;;;;8.32;1.33;;;;;;;;;;6244388;23;20190;-88
2023/01/05 09:45:04;;;;;;;5.70;1.10;;;;;;;;;;6242494;22;20182;-90
2023/01/05 09:48:12;;;;;;;9.77;1.30;;;;;;;;;;6245362;23;20166;-89
2023/01/05 09:51:28;;;;;;;4.43;1.30;;;;;;;;;;6241788;23;20175;-89
2023/01/05 09:54:34;;;;;;;5.72;1.00;;;;;;;;;;6242124;23;20214;-88
2023/01/05 09:57:41;;;;;;;6.00;1.20;;;;;;;;;;6244191;22;20268;-90
2023/01/05 10:00:52;;;;;;;10.93;1.52;;;;;;;;;;6242682;23;20218;-91
2023/01/05 10:03:59;;;;;;;3.80;0.93;;;;;;;;;;6240608;22;20171;-90
2023/01/05 10:07:07;;;;;;;7.60;1.77;;;;;;;;;;6242536;22;20166;-90
2023/01/05 10:10:18;;;;;;;6.25;1.30;;;;;;;;;;6242296;22;20234;-91
2023/01/05 10:13:25;;;;;;;7.97;1.50;;;;;;;;;;6242438;23;20179;-88
2023/01/05 10:16:31;;;;;;;7.93;1.63;;;;;;;;;;6243533;23;20186;-91
2023/01/05 10:19:36;;;;;;;7.00;1.65;;;;;;;;;;6241989;23;20253;-90
2023/01/05 10:22:46;;;;;;;10.02;1.70;;;;;;;;;;6242821;22;20205;-91
2023/01/05 10:25:53;;;;;;;4.25;1.30;;;;;;;;;;6264120;22;20170;-90
2023/01/05 10:29:00;;;;;;;4.03;1.13;;;;;;;;;;6245427;23;20166;-88
2023/01/05 10:32:10;;;;;;;7.07;1.65;;;;;;;;;;6244152;23;20212;-90
2023/01/05 10:35:24;;;;;;;8.20;1.50;;;;;;;;;;6243405;22;20506;-89
2023/01/05 10:38:36;;;;;;;6.57;1.40;;;;;;;;;;6243082;23;20249;-88
2023/01/05 10:41:47;;;;;;;7.15;1.70;;;;;;;;;;6243475;23;20170;-89
2023/01/05 10:44:56;;;;;;;9.15;1.65;;;;;;;;;;6246116;22;20202;-89
2023/01/05 10:48:01;;;;;;;5.82;1.90;;;;;;;;;;6260550;23;20170;-88
2023/01/05 10:51:06;;;;;;;7.78;2.10;;;;;;;;;;6241485;23;20214;-88
2023/01/05 10:54:21;;;;;;;10.10;2.15;;;;;;;;;;6263430;22;20189;-89
2023/01/05 10:57:32;;;;;;;11.48;2.05;;;;;;;;;;6262958;22;20190;-89
2023/01/05 11:00:41;;;;;;;6.18;1.35;;;;;;;;;;6149850;23;20628;-90
2023/01/05 11:03:49;;;;;;;4.85;1.40;;;;;;;;;;6174810;23;20224;-88
2023/01/05 11:07:03;;;;;;;9.02;2.20;;;;;;;;;;5978625;23;20640;-90
2023/01/05 11:10:19;;;;;;;8.85;1.48;;;;;;;;;;5906250;24;20203;-90
2023/01/05 11:13:30;;;;;;;9.77;2.55;;;;;;;;;;5904484;24;20179;-90
2023/01/05 11:16:37;;;;;;;10.20;1.80;;;;;;;;;;5902349;24;20170;-90
2023/01/05 11:19:45;;;;;;;4.38;1.20;;;;;;;;;;5901578;24;20255;-89
2023/01/05 11:22:50;;;;;;;6.18;1.30;;;;;;;;;;5900270;24;20207;-89
2023/01/05 11:26:12;;;;;;;6.07;1.30;;;;;;;;;;5904781;24;20164;-87
2023/01/05 11:29:17;;;;;;;8.55;1.52;;;;;;;;;;5905833;24;20167;-89
2023/01/05 11:32:23;;;;;;;9.15;1.38;;;;;;;;;;5901679;24;20180;-88
2023/01/05 11:35:30;;;;;;;4.45;1.17;;;;;;;;;;5904896;24;20221;-89
2023/01/05 11:38:36;;;;;;;10.60;1.75;;;;;;;;;;5903890;24;20202;-90
2023/01/05 11:41:44;;;;;;;8.45;1.50;;;;;;;;;;5904760;24;20177;-90
2023/01/05 11:44:52;;;;;;;6.47;1.52;;;;;;;;;;5902287;24;20176;-90
2023/01/05 11:47:59;;;;;;;3.33;1.20;;;;;;;;;;5903163;24;20189;-88
2023/01/05 11:51:04;;;;;;;6.45;1.60;;;;;;;;;;5899759;24;20179;-89
2023/01/05 11:54:32;;;;;;;8.52;1.42;;;;;;;;;;5902123;24;20207;-89
2023/01/05 11:57:41;;;;;;;9.93;2.75;;;;;;;;;;5902749;24;20206;-90
2023/01/05 12:00:53;;;;;;;8.88;1.95;;;;;;;;;;5902415;24;20172;-91
2023/01/05 12:04:03;;;;;;;9.57;1.80;;;;;;;;;;5903098;24;20159;-92
2023/01/05 12:07:15;;;;;;;6.05;1.25;;;;;;;;;;5923200;23;20176;-92
2023/01/05 12:10:31;;;;;;;7.57;1.30;;;;;;;;;;6060138;23;20210;-90
2023/01/05 12:13:45;;;;;;;6.90;1.25;;;;;;;;;;6069896;23;20168;-90
2023/01/05 12:16:54;;;;;;;6.00;1.65;;;;;;;;;;6035196;23;20168;-90
2023/01/05 12:20:11;;;;;;;3.72;0.98;;;;;;;;;;6053077;23;20175;-89
2023/01/05 12:23:27;;;;;;;4.25;1.13;;;;;;;;;;6037637;23;20196;-91
2023/01/05 12:26:38;;;;;;;6.97;1.20;;;;;;;;;;6036754;23;20243;-91
2023/01/05 12:30:02;;;;;;;5.03;1.08;;;;;;;;;;6041307;23;20184;-89
2023/01/05 12:33:19;;;;;;;5.32;1.10;;;;;;;;;;6070438;23;20170;-91
2023/01/05 12:36:29;;;;;;;4.40;1.02;;;;;;;;;;6041174;23;20171;-89
2023/01/05 12:39:52;;;;;;;5.93;1.30;;;;;;;;;;6052038;23;20285;-90
2023/01/05 12:43:01;;;;;;;3.72;1.00;;;;;;;;;;6072397;23;20200;-91
2023/01/05 12:46:14;;;;;;;6.32;1.23;;;;;;;;;;6039996;23;20557;-89
2023/01/05 12:49:22;;;;;;;6.53;1.05;;;;;;;;;;6040233;23;20166;-91
2023/01/05 12:52:32;;;;;;;4.78;1.25;;;;;;;;;;6038362;23;20240;-90
2023/01/05 12:55:39;;;;;;;8.50;1.92;;;;;;;;;;6039438;23;20192;-90
2023/01/05 12:58:50;;;;;;;4.18;1.30;;;;;;;;;;6041372;23;20220;-90
2023/01/05 13:02:01;;;;;;;6.00;2.08;;;;;;;;;;6039318;23;20193;-89
2023/01/05 13:05:11;;;;;;;5.40;1.30;;;;;;;;;;6055135;23;20172;-88
2023/01/05 13:08:19;;;;;;;7.25;1.30;;;;;;;;;;6107277;23;20289;-89
2023/01/05 13:11:28;;;;;;;9.32;1.60;;;;;;;;;;6154576;23;20275;-90
2023/01/05 13:14:34;;;;;;;9.45;1.42;;;;;;;;;;6169897;23;20169;-89
2023/01/05 13:17:43;;;;;;;7.70;1.33;;;;;;;;;;6153933;23;20227;-89
2023/01/05 13:20:51;;;;;;;4.97;1.30;;;;;;;;;;6157542;23;20181;-91
2023/01/05 13:24:00;;;;;;;9.55;1.85;;;;;;;;;;6154784;23;20244;-91
2023/01/05 13:27:06;;;;;;;7.10;1.40;;;;;;;;;;6155389;23;20157;-87
2023/01/05 13:30:16;;;;;;;7.38;1.45;;;;;;;;;;6154782;23;20191;-89
2023/01/05 13:33:38;;;;;;;11.38;1.67;;;;;;;;;;6154692;23;20168;-89
2023/01/05 13:36:53;;;;;;;7.22;2.00;;;;;;;;;;6172275;23;20242;-90
2023/01/05 13:40:08;;;;;;;4.80;1.67;;;;;;;;;;6172902;23;20248;-91
2023/01/05 13:43:23;;;;;;;9.98;1.85;;;;;;;;;;6173793;23;20244;-89
2023/01/05 13:46:35;;;;;;;3.90;1.17;;;;;;;;;;6173903;23;20177;-91
2023/01/05 13:49:55;;;;;;;7.90;1.67;;;;;;;;;;6156380;23;20259;-90
2023/01/05 13:53:06;;;;;;;7.53;2.05;;;;;;;;;;6172144;23;20164;-89
2023/01/05 13:56:16;;;;;;;9.55;1.65;;;;;;;;;;6173536;23;20189;-89
2023/01/05 13:59:26;;;;;;;8.98;1.77;;;;;;;;;;6154899;23;20249;-89
2023/01/05 14:02:35;;;;;;;8.25;1.60;;;;;;;;;;6171226;23;20239;-90
2023/01/05 14:05:47;;;;;;;10.25;2.00;;;;;;;;;;6156805;23;20153;-90
2023/01/05 14:08:56;;;;;;;8.57;1.55;;;;;;;;;;6154651;23;20207;-90
2023/01/05 14:12:21;;;;;;;11.23;2.38;;;;;;;;;;6153516;23;20169;-91
2023/01/05 14:15:43;;;;;;;7.75;1.73;;;;;;;;;;6154457;23;20168;-90
2023/01/05 14:18:52;;;;;;;6.72;2.15;;;;;;;;;;6156620;23;20201;-88
2023/01/05 14:22:02;;;;;;;11.23;2.15;;;;;;;;;;6155441;23;20168;-90
2023/01/05 14:25:26;;;;;;;9.65;1.83;;;;;;;;;;6154910;23;20172;-91
2023/01/05 14:28:54;;;;;;;11.48;2.42;;;;;;;;;;6158387;23;20241;-90
2023/01/05 14:32:06;;;;;;;7.72;2.00;;;;;;;;;;6159802;23;20164;-91
2023/01/05 14:35:27;;;;;;;6.60;2.22;;;;;;;;;;6159690;23;20168;-91
2023/01/05 14:38:33;;;;;;;13.85;2.35;;;;;;;;;;6159731;23;20191;-91
2023/01/05 14:41:40;;;;;;;8.68;1.67;;;;;;;;;;6159677;23;20237;-90
2023/01/05 14:45:09;;;;;;;10.73;1.90;;;;;;;;;;6160323;23;20168;-90
2023/01/05 14:48:30;;;;;;;15.13;2.10;;;;;;;;;;6195863;23;20184;-89
2023/01/05 14:51:38;;;;;;;7.35;1.90;;;;;;;;;;6160828;23;20270;-90
2023/01/05 14:55:03;;;;;;;10.23;1.73;;;;;;;;;;6160291;23;20168;-89
2023/01/05 14:58:13;;;;;;;15.65;3.53;;;;;;;;;;6160629;23;20235;-88
2023/01/05 15:01:22;;;;;;;5.97;1.70;;;;;;;;;;6160843;23;20164;-90
2023/01/05 15:04:30;;;;;;;11.05;1.88;;;;;;;;;;6172370;23;20221;-90
2023/01/05 15:07:40;;;;;;;6.65;1.65;;;;;;;;;;6175391;23;20241;-87
2023/01/05 15:11:18;;;;;;;6.45;1.38;;;;;;;;;;6169232;23;20505;-89
2023/01/05 15:14:38;;;;;;;10.93;1.55;;;;;;;;;;6170327;23;20168;-90
2023/01/05 15:17:52;;;;;;;6.03;1.30;;;;;;;;;;6136477;23;20648;-88
2023/01/05 15:21:21;;;;;;;8.00;1.58;;;;;;;;;;6168661;23;20247;-88
2023/01/05 15:24:59;;;;;;;5.60;1.40;;;;;;;;;;6169241;23;20231;-91
2023/01/05 15:28:28;;;;;;;6.72;1.40;;;;;;;;;;6063167;23;20307;-90
2023/01/05 15:31:39;;;;;;;7.07;1.80;;;;;;;;;;6168303;23;20187;-90
2023/01/05 15:34:46;;;;;;;6.53;1.40;;;;;;;;;;6169682;23;20660;-88
2023/01/05 15:37:52;;;;;;;8.43;1.58;;;;;;;;;;6169422;23;20169;-90
2023/01/05 15:41:00;;;;;;;4.35;1.20;;;;;;;;;;6169267;23;20171;-89
2023/01/05 15:44:06;;;;;;;10.23;1.75;;;;;;;;;;6170219;23;20173;-88
2023/01/05 15:47:12;;;;;;;11.38;1.63;;;;;;;;;;6166873;23;20185;-90
2023/01/05 15:50:19;;;;;;;6.10;1.58;;;;;;;;;;6169031;23;20171;-91
2023/01/05 15:53:26;;;;;;;4.93;1.20;;;;;;;;;;6168640;23;20165;-90
2023/01/05 15:56:32;;;;;;;4.13;1.17;;;;;;;;;;6169298;23;20248;-89
2023/01/05 15:59:40;;;;;;;6.63;1.60;;;;;;;;;;6168772;23;20647;-88
2023/01/05 16:02:47;;;;;;;6.88;1.70;;;;;;;;;;6170986;23;20281;-90
2023/01/05 16:05:56;;;;;;;9.50;1.67;;;;;;;;;;6173879;23;20246;-88
2023/01/05 16:09:08;;;;;;;12.93;2.78;;;;;;;;;;6211028;23;20175;-90
2023/01/05 16:12:23;;;;;;;12.27;2.10;;;;;;;;;;6210217;23;20171;-89
2023/01/05 16:15:30;;;;;;;6.20;1.40;;;;;;;;;;6229238;22;20207;-89
2023/01/05 16:18:38;;;;;;;7.15;2.05;;;;;;;;;;6228557;22;20170;-89
2023/01/05 16:21:45;;;;;;;9.07;1.70;;;;;;;;;;6211852;22;20224;-91
2023/01/05 16:24:54;;;;;;;8.52;2.15;;;;;;;;;;6209749;23;20214;-88
2023/01/05 16:28:02;;;;;;;10.70;1.98;;;;;;;;;;6212527;23;20186;-89
2023/01/05 16:31:13;;;;;;;9.63;1.70;;;;;;;;;;6230453;22;20224;-91
2023/01/05 16:34:23;;;;;;;18.20;2.83;;;;;;;;;;6211130;23;20151;-90
2023/01/05 16:37:28;;;;;;;11.80;2.38;;;;;;;;;;6213065;23;20198;-89
2023/01/05 16:40:33;;;;;;;6.03;1.73;;;;;;;;;;6210788;23;20198;-89
2023/01/05 16:43:45;;;;;;;10.80;2.33;;;;;;;;;;6209672;23;20166;-89
2023/01/05 16:47:05;;;;;;;10.38;1.88;;;;;;;;;;6210918;23;20171;-89
2023/01/05 16:50:31;;;;;;;9.48;2.20;;;;;;;;;;6211305;23;20235;-89
2023/01/05 16:53:41;;;;;;;14.75;2.70;;;;;;;;;;6227544;23;20175;-91
2023/01/05 16:56:51;;;;;;;11.90;2.78;;;;;;;;;;6210948;23;20238;-91
2023/01/05 16:59:57;;;;;;;16.88;2.80;;;;;;;;;;6212505;23;20239;-89
2023/01/05 17:03:03;;;;;;;16.00;2.97;;;;;;;;;;6212226;22;20208;-90
2023/01/05 17:06:15;;;;;;;12.50;2.80;;;;;;;;;;6211783;23;20238;-90
2023/01/05 17:09:22;;;;;;;11.00;3.67;;;;;;;;;;6211985;23;20196;-90
2023/01/05 17:12:28;;;;;;;14.48;2.80;;;;;;;;;;6211709;23;20170;-90
2023/01/05 17:15:35;;;;;;;19.17;4.53;;;;;;;;;;6209384;23;20172;-89
2023/01/05 17:18:40;;;;;;;15.02;3.72;;;;;;;;;;6213840;22;20155;-89
2023/01/05 17:21:51;;;;;;;16.02;3.67;;;;;;;;;;6215284;22;20254;-89
2023/01/05 17:24:58;;;;;;;11.50;2.80;;;;;;;;;;6214246;23;20179;-90
2023/01/05 17:28:03;;;;;;;16.70;5.03;;;;;;;;;;6213521;23;20163;-90
2023/01/05 17:31:09;;;;;;;17.15;2.67;;;;;;;;;;6213601;23;20175;-90
2023/01/05 17:34:14;;;;;;;11.35;2.30;;;;;;;;;;6214316;22;20148;-90
2023/01/05 17:37:19;;;;;;;16.88;3.00;;;;;;;;;;6214733;22;20665;-90
2023/01/05 17:40:27;;;;;;;14.13;3.05;;;;;;;;;;6214653;23;20202;-89
2023/01/05 17:47:06;;;;;;;12.13;3.40;;;;;;;;;;6215699;22;20162;-89
2023/01/05 17:50:14;;;;;;;14.85;3.38;;;;;;;;;;6214477;23;20171;-91
2023/01/05 17:53:19;;;;;;;13.27;2.80;;;;;;;;;;6213716;23;20168;-90
2023/01/05 17:56:26;;;;;;;15.10;4.55;;;;;;;;;;6220887;23;20254;-89
2023/01/05 17:59:31;;;;;;;48.67;22.15;;;;;;;;;;6232885;23;20195;-89
2023/01/05 18:02:37;;;;;;;19.73;3.22;;;;;;;;;;6213653;22;20182;-90
2023/01/05 18:05:43;;;;;;;17.52;3.88;;;;;;;;;;6236702;22;20166;-90
2023/01/05 18:08:50;;;;;;;13.80;2.90;;;;;;;;;;6215394;23;20201;-89
2023/01/05 18:11:57;;;;;;;14.88;3.00;;;;;;;;;;6213592;23;20186;-90
2023/01/05 18:15:02;;;;;;;11.85;2.92;;;;;;;;;;6234158;22;20179;-90
2023/01/05 18:18:07;;;;;;;10.52;2.67;;;;;;;;;;6213948;23;20304;-90
2023/01/05 18:21:12;;;;;;;17.50;3.28;;;;;;;;;;6215476;22;20223;-91
2023/01/05 18:24:18;;;;;;;23.00;4.55;;;;;;;;;;6213222;23;20163;-90
2023/01/05 18:27:26;;;;;;;29.27;6.00;;;;;;;;;;6215388;23;20187;-91
2023/01/05 18:30:31;;;;;;;22.90;4.60;;;;;;;;;;6214922;23;20222;-89
2023/01/05 18:33:36;;;;;;;17.33;3.20;;;;;;;;;;6213301;23;20166;-91
2023/01/05 18:36:41;;;;;;;21.88;6.00;;;;;;;;;;6214390;23;20346;-90
2023/01/05 18:39:47;;;;;;;19.88;3.83;;;;;;;;;;6214413;22;20207;-91
2023/01/05 18:42:53;;;;;;;13.50;2.97;;;;;;;;;;6212447;23;20171;-89
2023/01/05 18:45:58;;;;;;;12.10;3.60;;;;;;;;;;6229644;22;20171;-90
2023/01/05 18:49:04;;;;;;;19.50;3.17;;;;;;;;;;6213021;23;20674;-92
2023/01/05 18:52:12;;;;;;;12.98;2.47;;;;;;;;;;6213679;22;20179;-91
2023/01/05 18:55:17;;;;;;;8.82;2.97;;;;;;;;;;6213863;23;20211;-90
2023/01/05 18:58:25;;;;;;;16.80;2.85;;;;;;;;;;6212215;23;20182;-91
2023/01/05 19:01:30;;;;;;;13.70;3.42;;;;;;;;;;6211174;23;20249;-90
2023/01/05 19:04:35;;;;;;;14.40;3.25;;;;;;;;;;6212461;23;20168;-91
2023/01/05 19:07:41;;;;;;;16.98;2.80;;;;;;;;;;6211153;23;20186;-89
2023/01/05 19:10:46;;;;;;;18.65;4.97;;;;;;;;;;6212323;23;20171;-89
2023/01/05 19:13:54;;;;;;;13.55;2.90;;;;;;;;;;6212847;23;20207;-89
2023/01/05 19:16:59;;;;;;;16.20;2.97;;;;;;;;;;6213083;23;20538;-90
2023/01/05 19:20:05;;;;;;;10.70;2.97;;;;;;;;;;6214079;23;20198;-90
2023/01/05 19:23:10;;;;;;;16.70;3.13;;;;;;;;;;6215950;23;20167;-89